Time;durP1;ratioP1;P1;durP2;ratioP2;P2;SDS_P1;SDS_P2;PMS_P1;PMS_P2;Temp;Humidity;BMP_temperature;BMP_pressure;BME280_temperature;BME280_humidity;BME280_pressure;Samples;Min_cycle;Max_cycle;Signal;HPM_P1;HPM_P2
2021/10/12 00:01:23;;;;;;;17.27;12.40;;;;;;;8.30;75.55;99734.25;2618011;54;20035;-64
2021/10/12 00:03:53;;;;;;;17.92;12.25;;;;;;;8.26;75.50;99730.28;2617540;47;20039;-63
2021/10/12 00:06:23;;;;;;;19.48;14.02;;;;;;;8.17;75.24;99740.75;2617495;47;20058;-64
2021/10/12 00:08:52;;;;;;;21.50;15.27;;;;;;;8.03;75.50;99735.22;2618128;54;20037;-64
2021/10/12 00:11:25;;;;;;;22.80;16.38;;;;;;;7.89;75.46;99733.97;2617663;54;20038;-64
2021/10/12 00:13:55;;;;;;;20.75;14.80;;;;;;;7.80;76.27;99735.72;2618625;39;20399;-64
2021/10/12 00:16:25;;;;;;;22.67;14.10;;;;;;;7.78;76.35;99729.75;2617971;54;20034;-64
2021/10/12 00:18:55;;;;;;;18.67;12.85;;;;;;;7.77;76.60;99732.56;2617271;47;20027;-64
2021/10/12 00:21:24;;;;;;;16.65;12.70;;;;;;;7.76;76.44;99739.63;2617141;47;20022;-65
2021/10/12 00:23:54;;;;;;;19.73;12.75;;;;;;;7.78;76.11;99721.88;2617291;47;20022;-64
2021/10/12 00:26:26;;;;;;;18.50;11.88;;;;;;;7.81;76.07;99716.31;2617815;54;20045;-64
2021/10/12 00:28:56;;;;;;;15.98;11.93;;;;;;;7.85;75.96;99717.66;2617951;54;20550;-64
2021/10/12 00:31:26;;;;;;;17.20;12.68;;;;;;;7.87;76.36;99720.94;2617832;54;20040;-64
2021/10/12 00:33:57;;;;;;;16.58;12.70;;;;;;;7.84;76.20;99730.97;2617774;54;20045;-64
2021/10/12 00:36:27;;;;;;;15.57;12.48;;;;;;;7.81;75.83;99731.28;2617954;54;20038;-64
2021/10/12 00:38:57;;;;;;;18.25;12.65;;;;;;;7.74;76.27;99723.16;2617834;54;20074;-64
2021/10/12 00:41:29;;;;;;;19.23;13.07;;;;;;;7.75;76.11;99716.06;2617840;31;20515;-64
2021/10/12 00:43:58;;;;;;;15.90;12.18;;;;;;;7.70;76.31;99713.91;2618283;39;20442;-64
2021/10/12 00:46:28;;;;;;;15.10;11.77;;;;;;;7.67;76.00;99712.41;2617727;47;20065;-64
2021/10/12 00:49:00;;;;;;;18.33;13.10;;;;;;;7.66;76.36;99709.91;2618231;39;20449;-64
2021/10/12 00:51:30;;;;;;;18.45;12.27;;;;;;;7.62;76.41;99716.47;2617491;54;20033;-64
2021/10/12 00:54:00;;;;;;;17.80;12.88;;;;;;;7.60;76.78;99714.00;2617798;54;20033;-64
2021/10/12 00:56:33;;;;;;;15.35;12.27;;;;;;;7.58;76.64;99708.03;2618019;54;20038;-64
2021/10/12 00:59:05;;;;;;;17.58;12.02;;;;;;;7.57;76.56;99714.28;2617866;54;20039;-63
2021/10/12 01:01:35;;;;;;;17.60;12.07;;;;;;;7.52;76.62;99703.41;2618889;39;20098;-64
2021/10/12 01:04:04;;;;;;;17.40;12.35;;;;;;;7.54;76.86;99698.78;2618665;54;20638;-63
2021/10/12 01:06:34;;;;;;;15.80;13.05;;;;;;;7.56;76.91;99699.47;2618504;54;20035;-64
2021/10/12 01:09:05;;;;;;;17.45;13.02;;;;;;;7.58;76.85;99696.69;2618565;54;20034;-64
2021/10/12 01:11:38;;;;;;;15.07;13.05;;;;;;;7.52;77.01;99692.88;2618358;54;20030;-63
2021/10/12 01:14:07;;;;;;;19.75;12.88;;;;;;;7.46;77.25;99696.09;2618214;51;20034;-63
2021/10/12 01:16:37;;;;;;;18.35;12.77;;;;;;;7.51;77.60;99687.75;2618129;54;20030;-63
2021/10/12 01:19:09;;;;;;;15.43;12.45;;;;;;;7.55;77.48;99687.31;2618236;54;20038;-64
2021/10/12 01:21:45;;;;;;;17.60;12.35;;;;;;;7.60;77.61;99676.31;2619026;54;20065;-64
2021/10/12 01:24:15;;;;;;;15.43;11.32;;;;;;;7.60;77.23;99676.31;2619454;54;20034;-63
2021/10/12 01:26:46;;;;;;;15.07;11.85;;;;;;;7.65;77.48;99663.53;2619607;54;20031;-64
2021/10/12 01:29:17;;;;;;;15.90;11.90;;;;;;;7.72;77.09;99658.50;2619587;54;20035;-64
2021/10/12 01:31:47;;;;;;;19.83;12.48;;;;;;;7.75;77.13;99660.81;2619228;39;20406;-64
2021/10/12 01:34:18;;;;;;;14.95;11.60;;;;;;;7.73;76.75;99654.88;2617776;47;20026;-63
2021/10/12 01:36:51;;;;;;;17.38;12.18;;;;;;;7.70;77.08;99648.09;2618827;54;20061;-64
2021/10/12 01:39:22;;;;;;;17.60;11.55;;;;;;;7.67;76.93;99651.03;2618749;54;20026;-63
2021/10/12 01:41:51;;;;;;;13.75;10.73;;;;;;;7.69;76.77;99646.47;2618582;54;20035;-64
2021/10/12 01:44:21;;;;;;;15.75;11.20;;;;;;;7.72;77.17;99642.72;2618684;54;20538;-64
2021/10/12 01:46:51;;;;;;;17.38;11.55;;;;;;;7.74;76.71;99646.00;2618803;54;20638;-63
2021/10/12 01:49:20;;;;;;;15.85;12.43;;;;;;;7.72;77.17;99637.44;2618629;54;20566;-63
2021/10/12 01:51:53;;;;;;;17.15;11.38;;;;;;;7.69;76.69;99628.03;2617781;54;20041;-64
2021/10/12 01:54:25;;;;;;;16.23;11.52;;;;;;;7.69;76.92;99626.22;2618537;54;20058;-64
2021/10/12 01:56:55;;;;;;;14.20;11.50;;;;;;;7.69;77.22;99620.97;2617925;46;20057;-64
2021/10/12 01:59:25;;;;;;;15.88;11.88;;;;;;;7.69;76.99;99620.97;2618559;54;20045;-64
2021/10/12 02:02:01;;;;;;;17.10;11.50;;;;;;;7.73;77.08;99618.84;2617921;47;20041;-64
2021/10/12 02:04:32;;;;;;;16.65;11.05;;;;;;;7.76;77.12;99615.09;2618409;54;20122;-64
2021/10/12 02:07:05;;;;;;;14.30;11.13;;;;;;;7.81;77.37;99612.81;2618777;54;20541;-64
2021/10/12 02:09:34;;;;;;;14.90;11.13;;;;;;;7.91;77.06;99603.81;2619003;54;20589;-64
2021/10/12 02:12:04;;;;;;;16.65;11.10;;;;;;;7.99;76.72;99600.41;2618471;54;20022;-64
2021/10/12 02:14:34;;;;;;;20.48;11.68;;;;;;;8.01;76.76;99611.63;2618992;54;20057;-64
2021/10/12 02:17:03;;;;;;;17.92;12.02;;;;;;;7.99;76.51;99595.13;2621457;54;20027;-63
2021/10/12 02:19:33;;;;;;;17.27;11.73;;;;;;;8.02;76.39;99589.56;2625392;39;20419;-65
2021/10/12 02:22:06;;;;;;;15.05;11.23;;;;;;;8.07;76.46;99589.91;2622996;54;20576;-64
2021/10/12 02:24:35;;;;;;;13.93;10.68;;;;;;;8.08;76.47;99581.06;2622979;47;20037;-64
2021/10/12 02:27:05;;;;;;;15.15;11.18;;;;;;;8.05;76.29;99589.25;2622886;54;20046;-63
2021/10/12 02:29:35;;;;;;;16.17;11.77;;;;;;;8.03;76.39;99587.75;2621054;54;20045;-63
2021/10/12 02:32:05;;;;;;;15.85;11.75;;;;;;;7.99;76.43;99589.06;2618268;47;20053;-63
2021/10/12 02:34:35;;;;;;;14.30;11.68;;;;;;;7.92;76.09;99588.88;2619369;39;20442;-64
2021/10/12 02:37:07;;;;;;;18.63;11.95;;;;;;;7.89;76.73;99583.91;2618924;54;20037;-63
2021/10/12 02:39:37;;;;;;;16.52;11.85;;;;;;;7.90;76.30;99585.56;2618299;54;20065;-64
2021/10/12 02:42:07;;;;;;;14.30;11.30;;;;;;;7.88;76.74;99583.09;2618491;54;20026;-63
2021/10/12 02:44:37;;;;;;;15.55;11.63;;;;;;;7.93;76.81;99569.44;2619155;54;20539;-64
2021/10/12 02:47:06;;;;;;;14.10;11.73;;;;;;;7.97;76.32;99560.25;2622883;54;20027;-64
2021/10/12 02:49:36;;;;;;;17.67;11.32;;;;;;;7.98;76.74;99548.75;2623072;54;20038;-64
2021/10/12 02:52:08;;;;;;;15.68;11.10;;;;;;;8.05;76.56;99557.66;2622705;54;20026;-64
2021/10/12 02:54:38;;;;;;;14.43;10.88;;;;;;;8.10;76.39;99550.09;2621750;54;20035;-64
2021/10/12 02:57:08;;;;;;;15.23;11.93;;;;;;;8.14;76.48;99554.06;2618561;54;20134;-63
2021/10/12 02:59:37;;;;;;;15.27;11.30;;;;;;;8.20;76.13;99563.13;2618467;54;20030;-63
2021/10/12 03:02:07;;;;;;;15.18;11.50;;;;;;;8.21;76.36;99553.47;2617946;54;20037;-63
2021/10/12 03:04:37;;;;;;;17.10;12.63;;;;;;;8.08;76.17;99548.59;2618435;54;20066;-63
2021/10/12 03:07:09;;;;;;;15.50;11.73;;;;;;;8.05;76.52;99554.22;2618497;54;20042;-63
2021/10/12 03:09:39;;;;;;;15.80;11.73;;;;;;;8.01;76.39;99545.81;2618200;54;20038;-63
2021/10/12 03:12:09;;;;;;;14.63;12.00;;;;;;;7.83;76.39;99551.13;2617870;54;20026;-63
2021/10/12 03:14:39;;;;;;;16.27;12.65;;;;;;;7.80;76.60;99554.09;2617592;46;20039;-63
2021/10/12 03:17:08;;;;;;;17.83;12.70;;;;;;;7.79;76.88;99555.03;2618715;39;20423;-63
2021/10/12 03:19:38;;;;;;;16.58;12.38;;;;;;;7.87;77.42;99551.63;2618349;54;20037;-63
2021/10/12 03:22:12;;;;;;;15.77;11.35;;;;;;;7.93;77.00;99551.84;2617989;54;20542;-63
2021/10/12 03:24:42;;;;;;;;;;;;;;;7.92;76.73;99550.22;2617883;54;20022;-63
2021/10/12 03:27:13;;;;;;;16.60;11.52;;;;;;;7.91;76.82;99551.16;2618199;54;19950;-63
2021/10/12 03:29:43;;;;;;;15.25;11.63;;;;;;;7.94;76.95;99547.41;2617632;47;20034;-63
2021/10/12 03:32:13;;;;;;;17.05;13.15;;;;;;;7.99;76.63;99550.38;2618108;54;20588;-63
2021/10/12 03:34:42;;;;;;;16.75;11.68;;;;;;;8.01;76.88;99542.34;2617500;54;20027;-63
2021/10/12 03:37:14;;;;;;;37.05;25.65;;;;;;;8.05;76.93;99544.50;2620822;49;20034;-63
2021/10/12 03:39:44;;;;;;;20.30;12.77;;;;;;;8.09;77.16;99552.91;2620577;54;20026;-63
2021/10/12 03:42:14;;;;;;;16.33;11.93;;;;;;;8.14;76.53;99558.53;2619440;54;20037;-64
2021/10/12 03:44:43;;;;;;;16.02;11.80;;;;;;;8.06;76.76;99550.59;2618297;54;20034;-63
2021/10/12 03:47:13;;;;;;;15.05;11.13;;;;;;;8.13;76.79;99551.63;2618742;39;20477;-63
2021/10/12 03:49:43;;;;;;;15.77;11.38;;;;;;;8.20;76.84;99549.97;2618130;54;20083;-64
2021/10/12 03:52:15;;;;;;;16.00;11.18;;;;;;;8.26;76.71;99541.44;2618052;54;20026;-64
2021/10/12 03:54:45;;;;;;;15.70;11.52;;;;;;;8.30;76.62;99541.97;2617665;47;20029;-64
2021/10/12 03:57:15;;;;;;;15.30;12.32;;;;;;;8.30;76.21;99537.50;2617571;47;20023;-64
2021/10/12 03:59:44;;;;;;;14.95;11.85;;;;;;;8.27;76.68;99539.63;2617491;47;20034;-64
2021/10/12 04:02:14;;;;;;;15.30;12.23;;;;;;;8.33;77.09;99531.94;2617841;54;20050;-64
2021/10/12 04:04:44;;;;;;;13.70;11.10;;;;;;;8.35;76.49;99539.66;2618018;54;20038;-64
2021/10/12 04:07:16;;;;;;;16.40;12.27;;;;;;;8.39;76.87;99536.56;2617919;54;20031;-64
2021/10/12 04:09:46;;;;;;;16.35;12.32;;;;;;;8.41;76.47;99537.25;2618248;54;20069;-64
2021/10/12 04:12:15;;;;;;;16.95;12.07;;;;;;;8.44;76.95;99528.19;2617222;47;20074;-64
2021/10/12 04:14:45;;;;;;;15.73;11.80;;;;;;;8.44;77.08;99534.28;2617524;47;20034;-64
2021/10/12 04:17:14;;;;;;;15.82;11.45;;;;;;;8.43;76.78;99537.06;2618049;54;20054;-64
2021/10/12 04:19:44;;;;;;;17.40;12.15;;;;;;;8.34;76.77;99538.03;2617328;47;20034;-64
2021/10/12 04:22:17;;;;;;;15.93;11.82;;;;;;;8.30;76.94;99537.50;2617767;54;20026;-64
2021/10/12 04:24:47;;;;;;;15.65;12.25;;;;;;;8.26;77.35;99538.81;2618066;54;20034;-64
2021/10/12 04:27:16;;;;;;;18.65;11.80;;;;;;;8.29;77.19;99537.69;2617785;54;20038;-64
2021/10/12 04:29:46;;;;;;;17.08;12.70;;;;;;;8.29;76.99;99522.69;2618226;54;20035;-64
2021/10/12 04:32:16;;;;;;;18.35;13.23;;;;;;;8.31;77.23;99520.72;2617957;54;20073;-63
2021/10/12 04:34:46;;;;;;;16.80;13.07;;;;;;;8.33;77.06;99521.41;2618972;54;20038;-65
2021/10/12 04:37:20;;;;;;;15.93;12.35;;;;;;;8.35;77.70;99526.50;2618687;54;20034;-63
2021/10/12 04:39:50;;;;;;;17.83;12.77;;;;;;;8.37;77.62;99521.94;2618778;54;20083;-64
2021/10/12 04:42:19;;;;;;;16.33;11.85;;;;;;;8.39;77.12;99520.75;2618306;54;20077;-64
2021/10/12 04:44:53;;;;;;;12.65;11.23;;;;;;;8.39;77.37;99518.13;2618188;54;20069;-64
2021/10/12 04:47:23;;;;;;;17.90;12.68;;;;;;;8.40;77.21;99511.03;2619008;54;20126;-65
2021/10/12 04:49:53;;;;;;;14.73;11.18;;;;;;;8.42;77.73;99515.19;2619055;54;20049;-64
2021/10/12 04:52:25;;;;;;;16.30;11.20;;;;;;;8.44;77.51;99509.75;2618701;54;20027;-64
2021/10/12 04:54:55;;;;;;;17.85;10.98;;;;;;;8.46;77.81;99515.69;2618608;54;20038;-64
2021/10/12 04:57:24;;;;;;;19.75;13.10;;;;;;;8.49;77.65;99506.63;2618476;47;20057;-64
2021/10/12 04:59:54;;;;;;;18.27;12.80;;;;;;;8.48;77.66;99500.53;2618654;54;20034;-64
2021/10/12 05:02:24;;;;;;;18.08;12.80;;;;;;;8.46;77.95;99493.78;2618388;54;20046;-65
2021/10/12 05:04:54;;;;;;;18.13;12.70;;;;;;;8.43;77.99;99494.91;2618797;54;20538;-65
2021/10/12 05:07:26;;;;;;;15.13;12.52;;;;;;;8.34;77.71;99486.16;2618672;54;20038;-65
2021/10/12 05:09:56;;;;;;;18.58;12.93;;;;;;;8.19;78.62;99493.84;2618596;54;20053;-64
2021/10/12 05:12:25;;;;;;;17.58;12.63;;;;;;;8.25;78.49;99495.03;2617842;54;20019;-65
2021/10/12 05:14:55;;;;;;;15.57;12.00;;;;;;;8.35;79.06;99479.06;2618211;54;20029;-64
2021/10/12 05:17:26;;;;;;;18.05;13.18;;;;;;;8.42;78.66;99474.84;2619439;39;20424;-64
2021/10/12 05:19:56;;;;;;;14.95;12.00;;;;;;;8.42;78.61;99473.03;2618689;54;20035;-64
2021/10/12 05:22:30;;;;;;;17.88;12.15;;;;;;;8.36;78.36;99471.00;2618583;54;20085;-65
2021/10/12 05:24:59;;;;;;;15.45;11.85;;;;;;;8.32;78.67;99460.94;2618610;54;20035;-65
2021/10/12 05:27:29;;;;;;;14.00;11.05;;;;;;;8.42;78.71;99461.66;2618849;54;20027;-64
2021/10/12 05:29:59;;;;;;;15.32;11.27;;;;;;;8.39;78.84;99468.06;2618886;54;20577;-65
2021/10/12 05:32:28;;;;;;;15.63;11.77;;;;;;;8.34;78.43;99474.78;2618540;47;20035;-64
2021/10/12 05:34:59;;;;;;;17.45;11.68;;;;;;;8.27;78.86;99461.44;2618601;54;20042;-64
2021/10/12 05:37:32;;;;;;;17.15;11.73;;;;;;;8.27;79.26;99458.78;2618693;54;20034;-64
2021/10/12 05:40:01;;;;;;;16.40;12.23;;;;;;;8.34;79.18;99444.00;2618659;54;20554;-65
2021/10/12 05:42:31;;;;;;;18.80;12.13;;;;;;;8.36;78.73;99447.28;2618393;54;20034;-65
2021/10/12 05:45:01;;;;;;;16.52;11.70;;;;;;;8.43;78.43;99452.75;2618877;54;20038;-64
2021/10/12 05:47:31;;;;;;;17.08;11.57;;;;;;;8.39;78.75;99444.38;2618428;47;20157;-64
2021/10/12 05:50:00;;;;;;;21.25;14.27;;;;;;;8.36;78.56;99447.28;2619380;54;20018;-65
2021/10/12 05:52:35;;;;;;;18.17;12.43;;;;;;;8.35;78.79;99455.34;2619794;54;20030;-64
2021/10/12 05:55:11;;;;;;;16.48;12.60;;;;;;;8.36;78.97;99446.47;2620263;46;20030;-65
2021/10/12 05:57:56;;;;;;;21.02;13.73;;;;;;;8.37;78.57;99442.91;2619732;54;20027;-65
2021/10/12 06:00:25;;;;;;;18.45;13.27;;;;;;;8.39;79.25;99443.53;2618960;54;20038;-65
2021/10/12 06:02:55;;;;;;;19.15;11.98;;;;;;;8.44;78.92;99451.78;2618637;54;20038;-65
2021/10/12 06:05:25;;;;;;;20.17;12.82;;;;;;;8.48;78.63;99447.81;2618489;54;20102;-64
2021/10/12 06:07:57;;;;;;;20.17;13.68;;;;;;;8.48;78.70;99450.47;2618428;54;20019;-64
2021/10/12 06:10:29;;;;;;;17.75;13.52;;;;;;;8.47;78.42;99453.28;2618537;54;20030;-65
2021/10/12 06:13:01;;;;;;;19.98;13.35;;;;;;;8.40;78.36;99463.63;2618308;54;20025;-64
2021/10/12 06:15:31;;;;;;;21.73;13.27;;;;;;;8.36;78.85;99463.09;2618712;54;20034;-65
2021/10/12 06:18:01;;;;;;;20.15;12.95;;;;;;;8.43;79.07;99471.22;2618494;54;20019;-64
2021/10/12 06:20:30;;;;;;;15.57;11.75;;;;;;;8.50;78.83;99461.69;2618637;54;20526;-65
2021/10/12 06:23:03;;;;;;;19.95;12.20;;;;;;;8.54;78.42;99467.44;2618220;54;20565;-65
2021/10/12 06:25:33;;;;;;;18.85;13.25;;;;;;;8.56;78.76;99468.91;2617675;47;20057;-65
2021/10/12 06:28:03;;;;;;;17.48;12.35;;;;;;;8.58;78.91;99472.22;2618475;54;20558;-63
2021/10/12 06:30:32;;;;;;;17.83;11.80;;;;;;;8.65;78.73;99472.38;2618258;54;20030;-63
2021/10/12 06:33:02;;;;;;;20.00;11.98;;;;;;;8.73;78.86;99469.75;2618002;54;20055;-63
2021/10/12 06:35:32;;;;;;;15.07;11.48;;;;;;;8.77;78.76;99465.78;2618403;54;20042;-63
2021/10/12 06:38:06;;;;;;;17.27;12.27;;;;;;;8.82;78.53;99463.50;2618927;39;20410;-64
2021/10/12 06:40:37;;;;;;;17.92;13.18;;;;;;;8.88;78.58;99464.66;2618114;54;20031;-63
2021/10/12 06:43:08;;;;;;;20.00;12.50;;;;;;;8.87;78.58;99466.47;2618244;54;20034;-63
2021/10/12 06:45:38;;;;;;;18.20;12.27;;;;;;;8.92;78.65;99465.97;2618537;54;20026;-63
2021/10/12 06:48:08;;;;;;;18.67;12.77;;;;;;;8.98;78.37;99467.94;2618492;54;20029;-63
2021/10/12 06:50:38;;;;;;;17.63;13.18;;;;;;;9.08;78.41;99467.78;2618357;54;20037;-63
2021/10/12 06:53:11;;;;;;;27.67;14.80;;;;;;;9.13;78.69;99461.00;2618381;54;20561;-63
2021/10/12 06:55:40;;;;;;;15.02;12.30;;;;;;;9.15;78.33;99463.47;2618656;54;20038;-63
2021/10/12 06:58:10;;;;;;;20.58;12.73;;;;;;;9.20;78.63;99466.44;2618180;54;20029;-63
2021/10/12 07:00:40;;;;;;;18.10;12.75;;;;;;;9.24;78.09;99469.56;2618568;54;20113;-64
2021/10/12 07:03:10;;;;;;;20.83;13.23;;;;;;;9.28;77.91;99463.78;2618402;54;20556;-64
2021/10/12 07:05:40;;;;;;;20.55;12.70;;;;;;;9.28;78.18;99465.59;2617787;46;20039;-63
2021/10/12 07:08:12;;;;;;;17.90;12.30;;;;;;;9.25;77.91;99471.19;2618503;47;20130;-64
2021/10/12 07:10:42;;;;;;;16.48;12.23;;;;;;;9.26;78.23;99468.38;2617674;47;20103;-64
2021/10/12 07:13:13;;;;;;;19.38;12.10;;;;;;;9.26;77.89;99465.75;2618666;54;20030;-63
2021/10/12 07:15:43;;;;;;;18.67;11.70;;;;;;;9.30;77.83;99464.41;2618385;54;20015;-64
2021/10/12 07:18:16;;;;;;;17.65;10.75;;;;;;;9.31;78.07;99460.00;2618653;54;20146;-64
2021/10/12 07:20:45;;;;;;;17.10;11.98;;;;;;;9.36;78.18;99465.59;2618531;54;20046;-63
2021/10/12 07:23:17;;;;;;;19.60;12.02;;;;;;;9.33;78.44;99453.53;2618426;51;20026;-63
2021/10/12 07:25:48;;;;;;;19.33;12.35;;;;;;;9.38;78.48;99453.84;2619186;54;20046;-64
2021/10/12 07:28:18;;;;;;;14.18;10.45;;;;;;;9.40;77.99;99457.16;2618645;54;20049;-63
2021/10/12 07:30:48;;;;;;;18.48;11.40;;;;;;;9.42;78.38;99456.97;2618816;54;20034;-64
2021/10/12 07:33:17;;;;;;;14.70;11.00;;;;;;;9.43;78.35;99456.00;2618148;54;20034;-64
2021/10/12 07:35:57;;;;;;;13.40;10.75;;;;;;;9.45;78.18;99451.38;2618241;54;20099;-64
2021/10/12 07:38:30;;;;;;;15.07;11.20;;;;;;;9.41;78.20;99450.88;2618688;39;20413;-64
2021/10/12 07:41:00;;;;;;;16.60;10.95;;;;;;;9.42;78.23;99454.34;2618544;54;20542;-64
2021/10/12 07:43:35;;;;;;;17.67;11.40;;;;;;;9.48;78.40;99448.41;2618776;54;20045;-64
2021/10/12 07:46:05;;;;;;;16.33;11.15;;;;;;;9.56;78.03;99443.09;2618857;54;20032;-64
2021/10/12 07:48:36;;;;;;;14.55;11.18;;;;;;;9.65;78.20;99444.69;2618667;54;20030;-65
2021/10/12 07:51:07;;;;;;;12.50;9.88;;;;;;;9.72;77.94;99444.84;2618466;54;20056;-64
2021/10/12 07:53:40;;;;;;;15.88;10.57;;;;;;;9.78;77.90;99445.97;2618363;54;20034;-64
2021/10/12 07:56:16;;;;;;;12.27;9.57;;;;;;;9.80;77.85;99444.00;2618908;54;20057;-64
2021/10/12 07:58:48;;;;;;;16.30;11.60;;;;;;;9.86;78.12;99441.47;2618726;54;20030;-64
2021/10/12 08:01:18;;;;;;;23.08;16.00;;;;;;;9.92;77.81;99432.88;2619238;54;20554;-64
2021/10/12 08:03:48;;;;;;;15.57;11.70;;;;;;;9.90;77.40;99434.03;2619384;54;20026;-64
2021/10/12 08:06:18;;;;;;;13.98;11.05;;;;;;;9.87;77.70;99437.84;2619404;54;20028;-64
2021/10/12 08:08:50;;;;;;;16.48;10.30;;;;;;;9.89;77.51;99427.94;2620046;54;20023;-65
2021/10/12 08:11:24;;;;;;;14.68;10.90;;;;;;;9.86;77.64;99430.09;2619596;54;20030;-64
2021/10/12 08:13:57;;;;;;;13.40;9.82;;;;;;;9.89;78.04;99422.66;2620456;54;20038;-64
2021/10/12 08:16:30;;;;;;;25.67;18.48;;;;;;;10.01;78.29;99435.47;2620628;54;20038;-64
2021/10/12 08:19:00;;;;;;;32.40;22.45;;;;;;;10.11;77.54;99426.31;2620126;54;20086;-65
2021/10/12 08:21:31;;;;;;;25.30;14.38;;;;;;;10.18;77.60;99431.75;2621600;54;20538;-66
2021/10/12 08:24:05;;;;;;;22.48;12.82;;;;;;;10.26;77.62;99426.44;2623384;54;20026;-66
2021/10/12 08:26:35;;;;;;;15.82;11.45;;;;;;;10.37;77.63;99419.94;2622226;54;20026;-66
2021/10/12 08:29:08;;;;;;;21.88;13.35;;;;;;;10.51;77.43;99418.34;2620365;47;20032;-65
2021/10/12 08:31:38;;;;;;;18.95;11.77;;;;;;;10.60;77.35;99423.38;2621343;54;20041;-65
2021/10/12 08:34:07;;;;;;;15.43;11.93;;;;;;;10.67;77.19;99412.91;2621276;54;20049;-65
2021/10/12 08:36:41;;;;;;;24.67;16.30;;;;;;;10.79;76.75;99411.50;2621094;54;20142;-67
2021/10/12 08:39:14;;;;;;;18.58;11.68;;;;;;;10.88;76.47;99410.41;2622500;54;20031;-65
2021/10/12 08:41:49;;;;;;;17.10;11.20;;;;;;;10.87;76.50;99416.69;2623178;39;20090;-65
2021/10/12 08:44:18;;;;;;;15.20;10.75;;;;;;;10.91;76.73;99410.06;2622125;54;20030;-65
2021/10/12 08:46:49;;;;;;;18.25;11.82;;;;;;;11.01;76.58;99407.13;2622274;47;20034;-65
2021/10/12 08:49:19;;;;;;;16.00;11.90;;;;;;;11.07;76.31;99398.50;2622675;54;20030;-66
2021/10/12 08:51:49;;;;;;;16.83;12.38;;;;;;;11.16;76.10;99401.88;2622233;54;20026;-65
2021/10/12 08:54:21;;;;;;;17.15;11.85;;;;;;;11.20;75.75;99402.34;2622879;54;20539;-66
2021/10/12 08:56:51;;;;;;;18.58;13.00;;;;;;;11.28;75.87;99396.94;2623251;54;20035;-66
2021/10/12 08:59:20;;;;;;;19.40;12.27;;;;;;;11.32;76.13;99396.41;2622335;54;20035;-66
2021/10/12 09:01:59;;;;;;;18.35;11.50;;;;;;;11.32;75.53;99393.75;2622491;47;20022;-66
2021/10/12 09:04:40;;;;;;;17.90;12.15;;;;;;;11.34;75.72;99390.91;2623166;54;20035;-65
2021/10/12 09:07:20;;;;;;;17.63;11.88;;;;;;;11.33;75.50;99387.44;2623120;54;20038;-66
2021/10/12 09:09:53;;;;;;;16.52;10.90;;;;;;;11.33;75.40;99382.16;2622702;54;20030;-66
2021/10/12 09:12:44;;;;;;;14.90;11.50;;;;;;;11.40;75.25;99384.91;2622455;54;20045;-66
2021/10/12 09:15:14;;;;;;;19.98;12.82;;;;;;;11.46;75.50;99376.22;2623261;31;20536;-66
2021/10/12 09:17:46;;;;;;;16.88;12.88;;;;;;;11.47;75.12;99380.53;2622599;54;20049;-66
2021/10/12 09:20:33;;;;;;;15.55;12.48;;;;;;;11.45;74.78;99384.34;2622371;54;20045;-66
2021/10/12 09:23:09;;;;;;;17.27;12.32;;;;;;;11.43;74.84;99381.91;2621760;54;20026;-66
2021/10/12 09:25:43;;;;;;;16.67;12.02;;;;;;;11.48;75.02;99376.03;2621881;54;20033;-66
2021/10/12 09:28:26;;;;;;;26.27;12.27;;;;;;;11.50;74.87;99374.84;2621613;47;20553;-66
2021/10/12 09:31:00;;;;;;;21.85;11.48;;;;;;;11.45;75.08;99377.22;2622504;54;20038;-66
2021/10/12 09:33:30;;;;;;;17.33;12.13;;;;;;;11.43;75.38;99375.75;2622034;47;20581;-65
2021/10/12 09:35:59;;;;;;;19.60;12.05;;;;;;;11.37;75.37;99377.31;2622545;54;20045;-66
2021/10/12 09:38:29;;;;;;;19.83;11.88;;;;;;;11.31;75.44;99375.41;2622046;54;20026;-66
2021/10/12 09:41:08;;;;;;;19.80;12.70;;;;;;;11.29;75.86;99369.47;2621593;47;20143;-65
2021/10/12 09:43:38;;;;;;;18.92;12.40;;;;;;;11.33;75.58;99360.16;2622354;54;20576;-65
2021/10/12 09:46:26;;;;;;;19.07;12.50;;;;;;;11.47;75.67;99353.19;2622120;54;20044;-66
2021/10/12 09:48:56;;;;;;;17.33;11.88;;;;;;;11.61;75.64;99355.03;2621444;54;20026;-65
2021/10/12 09:51:25;;;;;;;17.50;11.77;;;;;;;11.72;75.78;99351.06;2622244;54;20030;-66
2021/10/12 09:53:55;;;;;;;21.25;12.15;;;;;;;11.88;75.40;99353.53;2622758;54;20027;-65
2021/10/12 09:56:28;;;;;;;16.30;11.27;;;;;;;12.05;74.97;99354.94;2621486;54;20546;-66
2021/10/12 09:59:00;;;;;;;21.95;11.38;;;;;;;12.15;74.93;99347.47;2622254;39;20183;-65
2021/10/12 10:01:30;;;;;;;12.38;9.75;;;;;;;12.28;74.17;99338.00;2621460;54;20037;-65
2021/10/12 10:04:00;;;;;;;13.48;10.07;;;;;;;12.29;73.85;99329.06;2621329;47;20530;-65
2021/10/12 10:06:30;;;;;;;14.70;9.88;;;;;;;12.33;74.28;99328.47;2621218;47;20023;-65
2021/10/12 10:09:00;;;;;;;14.65;10.15;;;;;;;12.31;74.15;99337.63;2621715;54;20026;-65
2021/10/12 10:11:42;;;;;;;11.40;8.98;;;;;;;12.19;74.60;99329.38;2620947;54;20022;-66
2021/10/12 10:14:13;;;;;;;12.38;8.48;;;;;;;12.09;74.00;99334.19;2621541;54;20022;-65
2021/10/12 10:16:47;;;;;;;16.03;9.33;;;;;;;12.02;74.41;99334.09;2620495;54;20045;-66
2021/10/12 10:19:19;;;;;;;20.83;11.80;;;;;;;11.99;74.48;99331.00;2621491;54;20287;-65
2021/10/12 10:21:49;;;;;;;16.10;9.82;;;;;;;11.85;74.50;99327.41;2620961;54;20066;-65
2021/10/12 10:24:44;;;;;;;17.60;9.65;;;;;;;11.79;74.11;99325.47;2621676;54;20038;-65
2021/10/12 10:27:39;;;;;;;15.15;9.95;;;;;;;11.76;74.20;99324.03;2621711;54;20030;-65
2021/10/12 10:30:28;;;;;;;16.17;9.35;;;;;;;11.75;74.17;99321.53;2621826;54;20129;-64
2021/10/12 10:33:00;;;;;;;18.00;9.50;;;;;;;11.70;74.34;99322.13;2622558;54;20042;-65
2021/10/12 10:35:39;;;;;;;15.07;8.85;;;;;;;11.76;74.05;99316.09;2622056;54;20081;-64
2021/10/12 10:38:28;;;;;;;13.32;8.85;;;;;;;11.70;74.17;99313.34;2622321;47;20797;-64
2021/10/12 10:41:36;;;;;;;17.17;9.57;;;;;;;11.78;74.28;99310.59;2622260;54;20035;-64
2021/10/12 10:44:10;;;;;;;18.33;8.73;;;;;;;11.91;74.05;99300.16;2621697;51;20036;-64
2021/10/12 10:46:41;;;;;;;19.05;10.40;;;;;;;11.99;73.84;99301.84;2620246;47;20126;-64
2021/10/12 10:49:13;;;;;;;17.08;9.90;;;;;;;12.07;73.59;99302.53;2620013;47;20077;-64
2021/10/12 10:51:52;;;;;;;15.90;9.00;;;;;;;12.06;73.74;99294.78;2620403;54;20114;-64
2021/10/12 10:55:04;;;;;;;11.40;8.52;;;;;;;11.92;73.99;99303.63;2620798;54;20034;-65
2021/10/12 10:57:35;;;;;;;49.03;31.58;;;;;;;11.81;74.10;99304.91;2620900;54;20045;-65
2021/10/12 11:00:26;;;;;;;18.30;8.68;;;;;;;11.74;74.62;99293.44;2620545;54;20038;-65
2021/10/12 11:02:57;;;;;;;21.67;14.93;;;;;;;11.68;74.48;99287.06;2621050;54;20067;-65
2021/10/12 11:05:50;;;;;;;24.27;16.30;;;;;;;11.71;74.96;99283.19;2621651;54;20030;-68
2021/10/12 11:08:22;;;;;;;19.45;10.77;;;;;;;11.62;75.36;99278.03;2622082;31;20522;-65
2021/10/12 11:10:57;;;;;;;20.02;13.43;;;;;;;11.60;75.43;99281.88;2621005;47;20023;-65
2021/10/12 11:13:31;;;;;;;18.20;11.38;;;;;;;11.61;75.49;99267.63;2621159;54;20027;-65
2021/10/12 11:16:05;;;;;;;16.63;10.68;;;;;;;11.61;74.85;99267.63;2621160;54;20025;-65
2021/10/12 11:18:35;;;;;;;18.27;9.45;;;;;;;11.61;75.30;99257.84;2619550;54;20042;-65
2021/10/12 11:21:08;;;;;;;18.00;8.82;;;;;;;11.63;75.03;99255.84;2621676;54;20045;-65
2021/10/12 11:23:40;;;;;;;15.00;9.05;;;;;;;11.70;75.39;99255.09;2623150;54;20038;-66
2021/10/12 11:26:11;;;;;;;19.67;10.20;;;;;;;11.80;74.67;99251.13;2623411;39;20421;-66
2021/10/12 11:28:43;;;;;;;14.63;8.90;;;;;;;11.77;74.74;99248.03;2622951;54;20042;-65
2021/10/12 11:31:17;;;;;;;14.23;8.55;;;;;;;11.79;74.77;99238.88;2622641;54;20184;-65
2021/10/12 11:33:48;;;;;;;15.35;8.52;;;;;;;11.81;74.78;99242.16;2621693;54;20034;-66
2021/10/12 11:36:20;;;;;;;10.93;8.18;;;;;;;11.84;74.31;99236.53;2621624;54;20030;-66
2021/10/12 11:38:55;;;;;;;16.23;8.20;;;;;;;11.82;74.06;99233.19;2622764;54;20037;-66
2021/10/12 11:41:28;;;;;;;12.95;7.88;;;;;;;11.78;74.14;99223.19;2622244;54;20166;-65
2021/10/12 11:44:00;;;;;;;15.35;7.00;;;;;;;11.83;73.82;99220.81;2623248;54;20031;-65
2021/10/12 11:46:35;;;;;;;13.13;7.50;;;;;;;11.96;73.79;99217.44;2622983;54;20042;-65